Time;durP1;ratioP1;P1;durP2;ratioP2;P2;SDS_P1;SDS_P2;PMS_P1;PMS_P2;Temp;Humidity;BMP_temperature;BMP_pressure;BME280_temperature;BME280_humidity;BME280_pressure;Samples;Min_cycle;Max_cycle;Signal;HPM_P1;HPM_P2
2023/06/24 00:00:38;;;;;;;;;;;25.70;41.90;;;;;;1584890;73;713;-64
2023/06/24 00:02:43;;;;;;;;;;;25.80;41.80;;;;;;1584407;73;733;-62
2023/06/24 00:04:43;;;;;;;;;;;25.80;41.80;;;;;;1583281;73;995;-62
2023/06/24 00:06:45;;;;;;;;;;;25.80;41.80;;;;;;1591213;73;760;-62
2023/06/24 00:08:47;;;;;;;;;;;25.80;41.90;;;;;;1586109;73;1921;-63
2023/06/24 00:10:49;;;;;;;;;;;25.70;41.80;;;;;;1590992;73;720;-62
2023/06/24 00:12:51;;;;;;;;;;;25.80;41.70;;;;;;1597256;73;730;-64
2023/06/24 00:14:53;;;;;;;;;;;25.80;42.00;;;;;;1594172;73;739;-64
2023/06/24 00:16:56;;;;;;;;;;;25.70;42.10;;;;;;1589175;73;788;-62
2023/06/24 00:18:58;;;;;;;;;;;25.70;42.10;;;;;;1599722;73;1152;-63
2023/06/24 00:21:01;;;;;;;;;;;25.70;42.20;;;;;;1584324;73;669;-64
2023/06/24 00:23:03;;;;;;;;;;;25.70;42.10;;;;;;1585379;73;1536;-62
2023/06/24 00:25:05;;;;;;;;;;;25.70;42.00;;;;;;1602185;73;704;-62
2023/06/24 00:27:07;;;;;;;;;;;25.70;42.00;;;;;;1599763;73;768;-63
2023/06/24 00:29:09;;;;;;;;;;;25.70;42.00;;;;;;1598077;73;1942;-63
2023/06/24 00:31:11;;;;;;;;;;;25.70;41.90;;;;;;1595036;73;782;-63
2023/06/24 00:33:13;;;;;;;;;;;25.80;41.90;;;;;;1591815;74;669;-62
2023/06/24 00:35:15;;;;;;;;;;;25.80;41.90;;;;;;1600010;73;766;-63
2023/06/24 00:37:17;;;;;;;;;;;25.80;41.80;;;;;;1543706;75;1684;-66
2023/06/24 00:39:19;;;;;;;;;;;25.80;41.80;;;;;;1584060;74;1148;-62
2023/06/24 00:41:21;;;;;;;;;;;25.80;41.80;;;;;;1600863;73;719;-62
2023/06/24 00:43:23;;;;;;;;;;;25.80;41.70;;;;;;1581877;73;777;-62
2023/06/24 00:45:24;;;;;;;;;;;25.80;41.70;;;;;;1594640;73;747;-63
2023/06/24 00:47:26;;;;;;;;;;;25.90;41.70;;;;;;1594764;73;761;-62
2023/06/24 00:49:28;;;;;;;;;;;25.90;41.60;;;;;;1588640;73;1955;-62
2023/06/24 00:51:31;;;;;;;;;;;25.90;41.50;;;;;;1576398;73;1544;-63
2023/06/24 00:53:33;;;;;;;;;;;25.80;41.50;;;;;;1595623;73;752;-62
2023/06/24 00:55:35;;;;;;;;;;;25.80;41.50;;;;;;1581447;73;698;-63
2023/06/24 00:57:37;;;;;;;;;;;25.90;41.50;;;;;;1590268;73;722;-63
2023/06/24 00:59:39;;;;;;;;;;;25.80;41.50;;;;;;1576726;73;789;-64
2023/06/24 01:01:41;;;;;;;;;;;25.80;41.40;;;;;;1600820;73;828;-64
2023/06/24 01:03:43;;;;;;;;;;;25.80;41.40;;;;;;1588576;73;791;-64
2023/06/24 01:05:45;;;;;;;;;;;25.90;41.30;;;;;;1592128;73;1377;-63
2023/06/24 01:07:54;;;;;;;;;;;25.80;41.30;;;;;;1589486;73;1096;-62
2023/06/24 01:09:50;;;;;;;;;;;25.90;41.40;;;;;;1593456;73;1932;-63
2023/06/24 01:11:52;;;;;;;;;;;25.90;41.30;;;;;;1580221;73;724;-62
2023/06/24 01:13:54;;;;;;;;;;;25.80;41.50;;;;;;1592033;73;681;-62
2023/06/24 01:15:56;;;;;;;;;;;25.80;41.30;;;;;;1583408;73;698;-65
2023/06/24 01:18:16;;;;;;;;;;;25.80;41.30;;;;;;1599839;73;1129;-64
2023/06/24 01:20:27;;;;;;;;;;;25.80;41.50;;;;;;1585460;73;1502;-62
2023/06/24 01:22:30;;;;;;;;;;;25.80;41.70;;;;;;1592760;73;687;-62
2023/06/24 01:24:34;;;;;;;;;;;25.80;41.60;;;;;;1590836;73;1920;-65
2023/06/24 01:26:41;;;;;;;;;;;25.80;41.80;;;;;;1582291;73;1826;-62
2023/06/24 01:28:59;;;;;;;;;;;25.80;41.70;;;;;;1594441;73;1918;-62
2023/06/24 01:31:04;;;;;;;;;;;25.80;41.90;;;;;;1588018;73;757;-63
2023/06/24 01:33:08;;;;;;;;;;;25.80;42.00;;;;;;1600581;73;1901;-62
2023/06/24 01:35:12;;;;;;;;;;;25.80;42.10;;;;;;1589142;73;753;-63
2023/06/24 01:37:17;;;;;;;;;;;25.80;42.20;;;;;;1585666;73;1735;-63
2023/06/24 01:39:19;;;;;;;;;;;25.70;42.10;;;;;;1581074;73;1135;-62
2023/06/24 01:41:22;;;;;;;;;;;25.80;42.10;;;;;;1598582;73;708;-62
2023/06/24 01:43:24;;;;;;;;;;;25.80;42.30;;;;;;1596094;73;776;-64
2023/06/24 01:45:27;;;;;;;;;;;25.70;42.30;;;;;;1598326;73;709;-62
2023/06/24 01:47:29;;;;;;;;;;;25.80;42.30;;;;;;1599236;73;1491;-62
2023/06/24 01:49:33;;;;;;;;;;;25.70;42.40;;;;;;1589308;73;1954;-59
2023/06/24 01:51:35;;;;;;;;;;;25.70;42.10;;;;;;1609831;73;1524;-59
2023/06/24 01:53:42;;;;;;;;;;;25.80;41.80;;;;;;1597152;73;740;-60
2023/06/24 01:55:44;;;;;;;;;;;25.80;41.80;;;;;;1593283;73;692;-61
2023/06/24 01:57:46;;;;;;;;;;;25.80;42.00;;;;;;1576125;73;1211;-60
2023/06/24 01:59:48;;;;;;;;;;;25.80;41.90;;;;;;1594171;73;735;-60
2023/06/24 02:01:50;;;;;;;;;;;25.80;42.10;;;;;;1602266;73;1495;-60
2023/06/24 02:03:51;;;;;;;;;;;25.80;41.80;;;;;;1587050;73;729;-60
2023/06/24 02:05:53;;;;;;;;;;;25.70;41.50;;;;;;1610743;72;806;-59
2023/06/24 02:07:56;;;;;;;;;;;25.80;41.40;;;;;;1589546;73;1138;-60
2023/06/24 02:09:58;;;;;;;;;;;25.80;41.20;;;;;;1600369;74;1909;-60
2023/06/24 02:12:01;;;;;;;;;;;25.90;41.10;;;;;;1581849;73;764;-60
2023/06/24 02:14:03;;;;;;;;;;;25.80;41.10;;;;;;1581664;73;660;-60
2023/06/24 02:16:06;;;;;;;;;;;25.80;41.00;;;;;;1591962;73;1628;-60
2023/06/24 02:18:09;;;;;;;;;;;25.80;41.50;;;;;;1591829;73;1135;-59
2023/06/24 02:20:11;;;;;;;;;;;25.80;41.50;;;;;;1587043;73;763;-60
2023/06/24 02:22:13;;;;;;;;;;;25.80;41.50;;;;;;1594165;73;743;-60
2023/06/24 02:24:15;;;;;;;;;;;25.80;41.40;;;;;;1580781;73;754;-60
2023/06/24 02:26:17;;;;;;;;;;;25.80;41.40;;;;;;1601606;73;947;-60
2023/06/24 02:28:19;;;;;;;;;;;25.80;41.70;;;;;;1604653;73;1174;-60
2023/06/24 02:30:21;;;;;;;;;;;25.80;42.30;;;;;;1597983;73;1936;-60
2023/06/24 02:32:23;;;;;;;;;;;25.70;42.30;;;;;;1595601;73;807;-60
2023/06/24 02:34:25;;;;;;;;;;;25.80;42.20;;;;;;1572437;74;703;-59
2023/06/24 02:36:27;;;;;;;;;;;25.70;42.20;;;;;;1588880;73;722;-60
2023/06/24 02:38:28;;;;;;;;;;;25.80;42.20;;;;;;1578333;73;1200;-60
2023/06/24 02:40:30;;;;;;;;;;;25.80;41.90;;;;;;1579604;73;800;-60
2023/06/24 02:42:32;;;;;;;;;;;25.90;41.70;;;;;;1585021;73;723;-59
2023/06/24 02:44:34;;;;;;;;;;;25.80;41.80;;;;;;1583417;73;1291;-60
2023/06/24 02:46:36;;;;;;;;;;;25.80;41.80;;;;;;1585861;73;806;-59
2023/06/24 02:48:38;;;;;;;;;;;25.80;42.00;;;;;;1576129;73;1954;-59
2023/06/24 02:50:40;;;;;;;;;;;25.80;41.70;;;;;;1585562;73;742;-60
2023/06/24 02:52:43;;;;;;;;;;;25.80;41.70;;;;;;1594645;73;722;-60
2023/06/24 02:54:44;;;;;;;;;;;25.80;41.90;;;;;;1582882;73;716;-61
2023/06/24 02:56:48;;;;;;;;;;;25.80;42.00;;;;;;1593732;73;722;-61
2023/06/24 02:58:52;;;;;;;;;;;25.70;42.40;;;;;;1589426;73;1567;-60
2023/06/24 03:00:53;;;;;;;;;;;25.70;42.50;;;;;;1599176;73;1703;-59
2023/06/24 03:02:55;;;;;;;;;;;25.70;42.40;;;;;;1601808;73;778;-60
2023/06/24 03:04:58;;;;;;;;;;;25.80;42.30;;;;;;1589760;73;758;-60
2023/06/24 03:07:00;;;;;;;;;;;25.80;42.20;;;;;;1594002;73;733;-60
2023/06/24 03:09:03;;;;;;;;;;;25.90;42.30;;;;;;1568307;73;1944;-61
2023/06/24 03:11:05;;;;;;;;;;;25.80;42.30;;;;;;1577065;73;924;-60
2023/06/24 03:13:07;;;;;;;;;;;25.80;42.10;;;;;;1595324;73;1651;-60
2023/06/24 03:15:09;;;;;;;;;;;25.90;42.10;;;;;;1587326;73;751;-59
2023/06/24 03:17:11;;;;;;;;;;;25.80;42.20;;;;;;1581895;74;1070;-60
2023/06/24 03:19:13;;;;;;;;;;;25.80;41.80;;;;;;1589656;73;1112;-61
2023/06/24 03:21:15;;;;;;;;;;;25.90;41.90;;;;;;1590819;73;772;-60
2023/06/24 03:23:17;;;;;;;;;;;25.80;41.80;;;;;;1591577;73;728;-60
2023/06/24 03:25:19;;;;;;;;;;;25.80;41.80;;;;;;1581988;73;741;-60
2023/06/24 03:27:21;;;;;;;;;;;25.80;41.70;;;;;;1577203;73;1497;-61
2023/06/24 03:29:25;;;;;;;;;;;25.80;41.90;;;;;;1586239;73;1925;-60
2023/06/24 03:31:27;;;;;;;;;;;25.80;41.70;;;;;;1603077;73;739;-60
2023/06/24 03:33:29;;;;;;;;;;;25.80;41.80;;;;;;1586037;73;844;-60
2023/06/24 03:35:32;;;;;;;;;;;25.80;41.60;;;;;;1596422;73;725;-60
2023/06/24 03:37:34;;;;;;;;;;;25.90;41.50;;;;;;1595296;73;937;-60
2023/06/24 03:39:36;;;;;;;;;;;25.80;41.40;;;;;;1594362;73;1170;-60
2023/06/24 03:41:39;;;;;;;;;;;25.80;41.50;;;;;;1584368;73;1632;-59
2023/06/24 03:43:41;;;;;;;;;;;25.90;41.50;;;;;;1597502;73;738;-61
2023/06/24 03:45:43;;;;;;;;;;;25.80;41.50;;;;;;1601350;73;667;-60
2023/06/24 03:47:45;;;;;;;;;;;25.90;41.50;;;;;;1578219;73;1132;-62
2023/06/24 03:49:47;;;;;;;;;;;25.90;41.50;;;;;;1584947;73;1940;-62
2023/06/24 03:51:49;;;;;;;;;;;25.80;41.60;;;;;;1595970;73;699;-61
2023/06/24 03:53:51;;;;;;;;;;;25.80;41.50;;;;;;1580066;73;1523;-62
2023/06/24 03:55:53;;;;;;;;;;;25.80;41.40;;;;;;1593992;73;729;-63
2023/06/24 03:57:55;;;;;;;;;;;25.80;41.70;;;;;;1591273;73;1167;-63
2023/06/24 03:59:57;;;;;;;;;;;25.80;41.80;;;;;;1594275;73;790;-62
2023/06/24 04:01:59;;;;;;;;;;;25.80;41.90;;;;;;1602568;73;706;-62
2023/06/24 04:04:00;;;;;;;;;;;25.80;42.00;;;;;;1588794;73;764;-62
2023/06/24 04:06:02;;;;;;;;;;;25.90;41.80;;;;;;1586634;73;736;-62
2023/06/24 04:08:06;;;;;;;;;;;25.80;42.00;;;;;;1590529;73;1602;-62
2023/06/24 04:10:10;;;;;;;;;;;25.90;41.90;;;;;;1593822;73;1907;-62
2023/06/24 04:12:12;;;;;;;;;;;25.80;42.00;;;;;;1586185;73;627;-61
2023/06/24 04:14:14;;;;;;;;;;;25.80;42.30;;;;;;1589160;73;666;-64
2023/06/24 04:16:16;;;;;;;;;;;25.80;41.90;;;;;;1591551;73;730;-63
2023/06/24 04:18:19;;;;;;;;;;;25.80;41.70;;;;;;1593713;73;1146;-63
2023/06/24 04:20:21;;;;;;;;;;;25.90;41.70;;;;;;1599035;73;762;-62
2023/06/24 04:22:22;;;;;;;;;;;25.80;41.80;;;;;;1593833;73;1416;-63
2023/06/24 04:24:24;;;;;;;;;;;25.80;42.20;;;;;;1600135;73;724;-65
2023/06/24 04:26:26;;;;;;;;;;;25.70;42.20;;;;;;1587061;73;762;-64
2023/06/24 04:28:28;;;;;;;;;;;25.80;42.20;;;;;;1603034;73;1147;-62
2023/06/24 04:30:30;;;;;;;;;;;25.80;42.10;;;;;;1591517;73;1928;-63
2023/06/24 04:32:32;;;;;;;;;;;25.70;42.30;;;;;;1597880;73;785;-62
2023/06/24 04:34:34;;;;;;;;;;;25.80;42.30;;;;;;1586887;73;803;-62
2023/06/24 04:36:36;;;;;;;;;;;25.70;42.10;;;;;;1592930;73;1327;-63
2023/06/24 04:38:37;;;;;;;;;;;25.70;42.50;;;;;;1599865;73;1163;-62
2023/06/24 04:40:39;;;;;;;;;;;25.70;42.20;;;;;;1607204;73;784;-63
2023/06/24 04:42:41;;;;;;;;;;;25.70;42.40;;;;;;1584216;73;715;-62
2023/06/24 04:44:43;;;;;;;;;;;25.70;41.90;;;;;;1583522;73;737;-62
2023/06/24 04:46:45;;;;;;;;;;;25.70;41.80;;;;;;1587244;73;727;-62
2023/06/24 04:48:47;;;;;;;;;;;25.70;41.70;;;;;;1601697;73;1154;-62
2023/06/24 04:50:49;;;;;;;;;;;25.70;41.60;;;;;;1584935;73;1937;-62
2023/06/24 04:52:57;;;;;;;;;;;25.70;41.40;;;;;;1598852;73;697;-62
2023/06/24 04:54:59;;;;;;;;;;;25.70;41.30;;;;;;1583371;73;760;-62
2023/06/24 04:57:01;;;;;;;;;;;25.80;41.20;;;;;;1593652;73;787;-62
2023/06/24 04:59:03;;;;;;;;;;;25.80;41.10;;;;;;1603332;73;1155;-62
2023/06/24 05:01:04;;;;;;;;;;;25.70;41.00;;;;;;1589072;73;790;-62
2023/06/24 05:03:06;;;;;;;;;;;25.70;41.10;;;;;;1586403;73;705;-62
2023/06/24 05:05:08;;;;;;;;;;;25.70;41.10;;;;;;1584234;73;1524;-63
2023/06/24 05:07:10;;;;;;;;;;;25.70;41.20;;;;;;1594885;73;791;-63
2023/06/24 05:09:14;;;;;;;;;;;25.70;41.10;;;;;;1586191;73;1122;-63
2023/06/24 05:11:15;;;;;;;;;;;25.70;41.00;;;;;;1590713;73;1929;-63
2023/06/24 05:13:17;;;;;;;;;;;25.70;41.10;;;;;;1587521;73;715;-63
2023/06/24 05:15:19;;;;;;;;;;;25.70;41.00;;;;;;1596801;73;761;-63
2023/06/24 05:17:21;;;;;;;;;;;25.70;41.20;;;;;;1601726;73;720;-62
2023/06/24 05:19:23;;;;;;;;;;;25.70;41.10;;;;;;1582065;73;1560;-63
2023/06/24 05:21:25;;;;;;;;;;;25.70;41.10;;;;;;1589322;73;669;-62
2023/06/24 05:23:27;;;;;;;;;;;25.70;41.00;;;;;;1574691;73;788;-62
2023/06/24 05:25:28;;;;;;;;;;;25.70;41.00;;;;;;1598279;73;690;-63
2023/06/24 05:27:30;;;;;;;;;;;25.80;41.00;;;;;;1595857;73;716;-62
2023/06/24 05:29:33;;;;;;;;;;;25.70;40.90;;;;;;1594652;73;1926;-62
2023/06/24 05:31:34;;;;;;;;;;;25.70;41.00;;;;;;1597980;73;731;-62
2023/06/24 05:33:36;;;;;;;;;;;25.70;41.10;;;;;;1581832;73;1327;-62
2023/06/24 05:35:40;;;;;;;;;;;25.70;41.00;;;;;;1592032;73;690;-62
2023/06/24 05:37:42;;;;;;;;;;;25.70;41.20;;;;;;1583960;73;1709;-62
2023/06/24 05:39:44;;;;;;;;;;;25.70;41.00;;;;;;1597205;73;702;-62
2023/06/24 05:41:48;;;;;;;;;;;25.70;40.90;;;;;;1598288;73;754;-62
2023/06/24 05:43:49;;;;;;;;;;;25.70;40.90;;;;;;1594227;73;1688;-62
2023/06/24 05:45:51;;;;;;;;;;;25.70;40.80;;;;;;1583628;73;670;-62
2023/06/24 05:47:53;;;;;;;;;;;25.60;40.70;;;;;;1581500;73;1569;-62
2023/06/24 05:49:55;;;;;;;;;;;25.70;40.90;;;;;;1595483;73;1944;-62
2023/06/24 05:51:57;;;;;;;;;;;25.60;41.70;;;;;;1585040;73;743;-62
2023/06/24 05:53:59;;;;;;;;;;;25.60;42.10;;;;;;1583303;73;746;-62
2023/06/24 05:56:01;;;;;;;;;;;25.50;42.10;;;;;;1596518;73;749;-63
2023/06/24 05:58:03;;;;;;;;;;;25.60;41.40;;;;;;1597805;73;1156;-62
2023/06/24 06:00:05;;;;;;;;;;;25.60;41.20;;;;;;1594764;73;733;-62
2023/06/24 06:02:07;;;;;;;;;;;25.70;40.90;;;;;;1573717;73;1709;-62
2023/06/24 06:04:09;;;;;;;;;;;25.60;41.40;;;;;;1581263;73;747;-62
2023/06/24 06:06:11;;;;;;;;;;;25.50;41.70;;;;;;1595280;73;732;-62
2023/06/24 06:08:13;;;;;;;;;;;25.60;41.80;;;;;;1579630;73;1129;-62
2023/06/24 06:10:17;;;;;;;;;;;25.60;41.50;;;;;;1597583;73;2231;-62
2023/06/24 06:12:18;;;;;;;;;;;25.60;41.30;;;;;;1588363;73;1484;-62
2023/06/24 06:14:20;;;;;;;;;;;25.60;41.10;;;;;;1590378;73;695;-62
2023/06/24 06:16:22;;;;;;;;;;;25.60;41.20;;;;;;1600957;73;825;-62
2023/06/24 06:18:24;;;;;;;;;;;25.60;41.10;;;;;;1581248;73;1134;-62
2023/06/24 06:20:26;;;;;;;;;;;25.60;41.10;;;;;;1598565;73;701;-62
2023/06/24 06:22:27;;;;;;;;;;;25.60;41.10;;;;;;1594189;73;675;-62
2023/06/24 06:24:29;;;;;;;;;;;25.60;41.10;;;;;;1594242;73;790;-62
2023/06/24 06:26:31;;;;;;;;;;;25.60;41.20;;;;;;1582838;73;746;-62
2023/06/24 06:28:33;;;;;;;;;;;25.50;41.10;;;;;;1574913;73;1553;-61
2023/06/24 06:30:35;;;;;;;;;;;25.50;41.00;;;;;;1587070;73;1944;-62
2023/06/24 06:32:37;;;;;;;;;;;25.50;40.90;;;;;;1599552;73;717;-62
2023/06/24 06:34:39;;;;;;;;;;;25.40;41.00;;;;;;1599873;73;775;-62
2023/06/24 06:36:41;;;;;;;;;;;25.50;41.00;;;;;;1574410;73;696;-62
2023/06/24 06:38:42;;;;;;;;;;;25.50;41.10;;;;;;1591172;73;1153;-61
2023/06/24 06:40:44;;;;;;;;;;;25.40;41.40;;;;;;1601019;73;691;-62
2023/06/24 06:42:46;;;;;;;;;;;25.40;41.70;;;;;;1592573;73;1569;-61
2023/06/24 06:44:48;;;;;;;;;;;25.40;41.90;;;;;;1578522;73;1356;-61
2023/06/24 06:46:50;;;;;;;;;;;25.50;41.60;;;;;;1586684;73;1355;-61
2023/06/24 06:48:52;;;;;;;;;;;25.40;41.30;;;;;;1594245;73;1316;-61
2023/06/24 06:50:54;;;;;;;;;;;25.40;41.10;;;;;;1588834;73;1941;-61
2023/06/24 06:52:55;;;;;;;;;;;25.50;41.10;;;;;;1585718;73;1463;-62
2023/06/24 06:54:58;;;;;;;;;;;25.40;41.10;;;;;;1598576;73;1515;-61
2023/06/24 06:57:03;;;;;;;;;;;25.40;41.10;;;;;;1583822;73;1478;-61
2023/06/24 06:59:05;;;;;;;;;;;25.40;41.00;;;;;;1590099;73;1320;-61
2023/06/24 07:01:07;;;;;;;;;;;25.50;41.10;;;;;;1580501;73;1253;-61
2023/06/24 07:03:09;;;;;;;;;;;25.50;41.10;;;;;;1599337;73;1171;-61
2023/06/24 07:05:11;;;;;;;;;;;25.40;41.10;;;;;;1585469;73;1425;-61
2023/06/24 07:07:13;;;;;;;;;;;25.40;41.10;;;;;;1591212;73;1333;-61
2023/06/24 07:09:15;;;;;;;;;;;25.40;41.10;;;;;;1590679;73;1514;-61
2023/06/24 07:11:17;;;;;;;;;;;25.40;41.20;;;;;;1585213;73;1948;-61
2023/06/24 07:13:18;;;;;;;;;;;25.40;41.20;;;;;;1584665;73;1336;-61
2023/06/24 07:15:20;;;;;;;;;;;25.40;41.20;;;;;;1589363;73;1483;-61
2023/06/24 07:17:22;;;;;;;;;;;25.40;41.20;;;;;;1592188;73;1163;-61
2023/06/24 07:19:24;;;;;;;;;;;25.50;41.20;;;;;;1594404;73;1320;-60
2023/06/24 07:21:26;;;;;;;;;;;25.50;41.10;;;;;;1587935;73;1290;-60
2023/06/24 07:23:28;;;;;;;;;;;25.50;41.00;;;;;;1589539;73;1346;-61
2023/06/24 07:25:30;;;;;;;;;;;25.50;41.00;;;;;;1588296;73;1550;-61
2023/06/24 07:27:32;;;;;;;;;;;25.40;41.00;;;;;;1593258;73;1872;-60
2023/06/24 07:29:34;;;;;;;;;;;25.40;41.00;;;;;;1585073;73;1216;-60
2023/06/24 07:31:36;;;;;;;;;;;25.50;41.00;;;;;;1576520;73;1949;-61
2023/06/24 07:33:38;;;;;;;;;;;25.50;40.90;;;;;;1599169;73;1285;-61
2023/06/24 07:35:39;;;;;;;;;;;25.50;41.00;;;;;;1593433;73;1034;-61
2023/06/24 07:37:41;;;;;;;;;;;25.50;41.10;;;;;;1603838;73;1533;-61
2023/06/24 07:39:43;;;;;;;;;;;25.50;41.10;;;;;;1584652;73;1491;-61
2023/06/24 07:41:45;;;;;;;;;;;25.50;41.10;;;;;;1596788;73;1304;-61
2023/06/24 07:43:47;;;;;;;;;;;25.50;41.20;;;;;;1594405;73;1332;-61
2023/06/24 07:45:49;;;;;;;;;;;25.50;41.10;;;;;;1584878;73;1129;-61
2023/06/24 07:47:51;;;;;;;;;;;25.60;41.20;;;;;;1583441;73;1431;-61
2023/06/24 07:49:52;;;;;;;;;;;25.50;41.20;;;;;;1598472;73;1272;-61
2023/06/24 07:51:54;;;;;;;;;;;25.50;41.10;;;;;;1593159;73;1932;-61
2023/06/24 07:53:56;;;;;;;;;;;25.50;41.10;;;;;;1589987;73;1312;-61
2023/06/24 07:55:58;;;;;;;;;;;25.50;41.10;;;;;;1588614;73;1374;-61
2023/06/24 07:58:02;;;;;;;;;;;25.50;41.00;;;;;;1578565;73;1350;-61
2023/06/24 08:00:04;;;;;;;;;;;25.50;41.10;;;;;;1561105;75;2049;-61
2023/06/24 08:02:06;;;;;;;;;;;25.50;41.10;;;;;;1535666;77;1284;-61
2023/06/24 08:04:08;;;;;;;;;;;25.50;41.10;;;;;;1531609;77;1060;-61
2023/06/24 08:06:10;;;;;;;;;;;25.50;41.10;;;;;;1542965;75;1211;-61
2023/06/24 08:08:12;;;;;;;;;;;25.50;41.40;;;;;;1530680;77;1458;-60
2023/06/24 08:10:14;;;;;;;;;;;25.50;41.50;;;;;;1536733;77;1508;-60
2023/06/24 08:12:16;;;;;;;;;;;25.50;42.20;;;;;;1536391;76;1943;-61
2023/06/24 08:14:18;;;;;;;;;;;25.50;42.20;;;;;;1535319;77;1278;-61
2023/06/24 08:16:20;;;;;;;;;;;25.60;42.30;;;;;;1532207;77;1199;-61
2023/06/24 08:18:22;;;;;;;;;;;25.50;42.20;;;;;;1531056;77;1264;-61
2023/06/24 08:20:24;;;;;;;;;;;25.50;42.20;;;;;;1530307;76;1251;-61
2023/06/24 08:22:26;;;;;;;;;;;25.60;41.90;;;;;;1564877;75;1526;-61
2023/06/24 08:24:28;;;;;;;;;;;25.60;41.80;;;;;;1570970;75;1329;-61
2023/06/24 08:26:29;;;;;;;;;;;25.60;41.90;;;;;;1550522;75;1356;-61
2023/06/24 08:28:31;;;;;;;;;;;25.60;41.90;;;;;;1563262;75;1367;-61
2023/06/24 08:30:33;;;;;;;;;;;25.60;41.80;;;;;;1549936;75;1317;-61
2023/06/24 08:32:35;;;;;;;;;;;25.60;42.20;;;;;;1554041;75;1349;-60
2023/06/24 08:34:37;;;;;;;;;;;25.60;42.20;;;;;;1555318;75;1245;-60
2023/06/24 08:36:39;;;;;;;;;;;25.60;42.20;;;;;;1558698;74;1508;-61
2023/06/24 08:38:41;;;;;;;;;;;25.60;42.10;;;;;;1570458;75;1240;-61
2023/06/24 08:40:43;;;;;;;;;;;25.60;42.10;;;;;;1553875;75;1239;-61
2023/06/24 08:42:45;;;;;;;;;;;25.60;42.00;;;;;;1557626;75;1464;-61
2023/06/24 08:44:47;;;;;;;;;;;25.60;42.00;;;;;;1561249;75;1397;-61
2023/06/24 08:46:49;;;;;;;;;;;25.70;41.90;;;;;;1521230;76;1326;-61
2023/06/24 08:48:51;;;;;;;;;;;25.70;42.00;;;;;;1533288;76;1338;-60
2023/06/24 08:50:53;;;;;;;;;;;25.60;41.90;;;;;;1528046;76;1928;-62
2023/06/24 08:52:55;;;;;;;;;;;25.70;41.80;;;;;;1537896;76;1518;-60
2023/06/24 08:54:56;;;;;;;;;;;25.70;41.80;;;;;;1551394;75;1359;-60
2023/06/24 08:57:00;;;;;;;;;;;25.70;41.70;;;;;;1562700;75;1262;-60
2023/06/24 08:59:02;;;;;;;;;;;25.60;41.80;;;;;;1563444;75;1158;-60
2023/06/24 09:01:03;;;;;;;;;;;25.60;41.70;;;;;;1566693;75;1052;-60
2023/06/24 09:03:05;;;;;;;;;;;25.70;41.40;;;;;;1558211;75;1060;-60
2023/06/24 09:05:07;;;;;;;;;;;25.60;41.50;;;;;;1567354;74;1312;-61
2023/06/24 09:07:10;;;;;;;;;;;25.70;41.70;;;;;;1555038;74;1240;-61
2023/06/24 09:09:21;;;;;;;;;;;25.60;41.00;;;;;;1563752;74;1167;-61
2023/06/24 09:11:25;;;;;;;;;;;25.70;40.90;;;;;;1554188;75;1931;-60
2023/06/24 09:13:36;;;;;;;;;;;25.60;37.90;;;;;;1559598;75;1779;-59
2023/06/24 09:15:38;;;;;;;;;;;25.40;39.30;;;;;;1559671;75;1253;-60
2023/06/24 09:17:46;;;;;;;;;;;25.40;38.50;;;;;;1530367;76;1526;-62
2023/06/24 09:19:49;;;;;;;;;;;25.40;39.30;;;;;;1520667;76;1126;-60
2023/06/24 09:21:55;;;;;;;;;;;25.30;39.00;;;;;;1562009;75;1112;-61
2023/06/24 09:23:55;;;;;;;;;;;25.30;39.00;;;;;;1558462;75;1571;-59
2023/06/24 09:25:58;;;;;;;;;;;25.40;38.70;;;;;;1534785;76;1486;-59
2023/06/24 09:28:00;;;;;;;;;;;25.50;38.40;;;;;;1526911;76;1441;-59
2023/06/24 09:30:04;;;;;;;;;;;25.40;37.90;;;;;;1523138;76;1316;-61
2023/06/24 09:32:06;;;;;;;;;;;25.30;37.80;;;;;;1542414;77;1974;-60
2023/06/24 09:34:09;;;;;;;;;;;25.30;38.80;;;;;;1533491;77;1088;-59
2023/06/24 09:36:16;;;;;;;;;;;25.30;38.70;;;;;;1540286;75;1689;-61
2023/06/24 09:38:17;;;;;;;;;;;25.30;38.70;;;;;;1536701;77;1482;-60
2023/06/24 09:40:20;;;;;;;;;;;25.30;38.80;;;;;;1535430;76;1378;-60
2023/06/24 09:42:23;;;;;;;;;;;25.30;38.60;;;;;;1585041;73;1485;-61
2023/06/24 09:44:25;;;;;;;;;;;25.30;38.70;;;;;;1599147;73;1295;-59
2023/06/24 09:46:27;;;;;;;;;;;25.40;38.90;;;;;;1586689;73;1427;-59
2023/06/24 09:48:29;;;;;;;;;;;25.50;39.10;;;;;;1591564;73;1402;-60
2023/06/24 09:50:31;;;;;;;;;;;25.60;39.00;;;;;;1589971;73;1275;-60
2023/06/24 09:52:33;;;;;;;;;;;25.70;38.30;;;;;;1592161;73;1935;-62
2023/06/24 09:54:35;;;;;;;;;;;25.60;37.80;;;;;;1593699;73;1314;-60
2023/06/24 09:56:37;;;;;;;;;;;25.50;38.20;;;;;;1581974;73;1489;-60
2023/06/24 09:58:39;;;;;;;;;;;25.40;37.60;;;;;;1592435;73;1173;-60
2023/06/24 10:00:41;;;;;;;;;;;25.40;38.10;;;;;;1566321;74;1372;-60
2023/06/24 10:02:43;;;;;;;;;;;25.40;38.20;;;;;;1602319;73;1434;-63
2023/06/24 10:04:44;;;;;;;;;;;25.30;38.20;;;;;;1585813;73;1039;-60
2023/06/24 10:06:47;;;;;;;;;;;25.30;38.00;;;;;;1592474;73;1118;-60
2023/06/24 10:08:48;;;;;;;;;;;25.30;38.10;;;;;;1586188;73;1459;-60
2023/06/24 10:10:50;;;;;;;;;;;25.30;37.80;;;;;;1591247;73;1260;-60
2023/06/24 10:12:52;;;;;;;;;;;25.40;38.00;;;;;;1590558;73;1924;-60
2023/06/24 10:14:54;;;;;;;;;;;25.30;38.20;;;;;;1595181;73;1556;-61
2023/06/24 10:17:04;;;;;;;;;;;25.40;38.20;;;;;;1588391;73;1200;-61
2023/06/24 10:19:05;;;;;;;;;;;25.40;37.40;;;;;;1591834;73;1459;-61
2023/06/24 10:21:08;;;;;;;;;;;25.20;37.50;;;;;;1591830;73;1356;-61
2023/06/24 10:23:09;;;;;;;;;;;25.10;37.90;;;;;;1599376;73;1486;-61
2023/06/24 10:25:11;;;;;;;;;;;25.30;38.00;;;;;;1590970;73;1336;-61
2023/06/24 10:27:16;;;;;;;;;;;25.40;38.00;;;;;;1592544;73;1311;-61
2023/06/24 10:29:21;;;;;;;;;;;25.40;38.10;;;;;;1595221;73;1638;-61
2023/06/24 10:31:23;;;;;;;;;;;25.60;37.40;;;;;;1593428;73;1922;-60
2023/06/24 10:33:25;;;;;;;;;;;25.50;37.30;;;;;;1593973;73;1766;-61
2023/06/24 10:35:29;;;;;;;;;;;25.50;37.50;;;;;;1594191;73;1362;-61
2023/06/24 10:37:32;;;;;;;;;;;25.60;37.50;;;;;;1589897;73;1363;-61
2023/06/24 10:39:48;;;;;;;;;;;25.70;36.30;;;;;;1591062;73;1332;-60
2023/06/24 10:41:50;;;;;;;;;;;25.50;37.30;;;;;;1580634;73;1499;-61
2023/06/24 10:43:52;;;;;;;;;;;25.40;37.60;;;;;;1591802;73;1214;-61
2023/06/24 10:45:54;;;;;;;;;;;25.40;37.80;;;;;;1576634;74;1185;-61
2023/06/24 10:47:56;;;;;;;;;;;25.50;37.30;;;;;;1593346;73;1196;-61
2023/06/24 10:49:58;;;;;;;;;;;25.40;36.80;;;;;;1587245;73;1221;-61
2023/06/24 10:52:00;;;;;;;;;;;25.30;36.00;;;;;;1597712;73;1933;-61
2023/06/24 10:54:02;;;;;;;;;;;25.30;36.00;;;;;;1581728;73;1482;-61
2023/06/24 10:56:04;;;;;;;;;;;25.20;36.10;;;;;;1595967;73;1512;-61
2023/06/24 10:58:09;;;;;;;;;;;25.20;36.10;;;;;;1588398;73;1325;-61
2023/06/24 11:00:11;;;;;;;;;;;25.40;35.90;;;;;;1584037;73;1178;-61
2023/06/24 11:02:23;;;;;;;;;;;25.20;34.80;;;;;;1584081;73;1334;-61
2023/06/24 11:04:25;;;;;;;;;;;25.30;35.90;;;;;;1586019;73;1282;-61
2023/06/24 11:06:27;;;;;;;;;;;25.40;35.60;;;;;;1592463;73;1499;-61
2023/06/24 11:08:29;;;;;;;;;;;25.40;35.50;;;;;;1592754;73;1199;-61
2023/06/24 11:10:31;;;;;;;;;;;25.30;35.10;;;;;;1589346;73;1540;-60
2023/06/24 11:12:36;;;;;;;;;;;25.30;36.00;;;;;;1585888;73;1941;-59
2023/06/24 11:14:40;;;;;;;;;;;25.30;36.00;;;;;;1581459;73;1077;-59
2023/06/24 11:16:42;;;;;;;;;;;25.30;35.70;;;;;;1587777;73;1466;-61
2023/06/24 11:18:43;;;;;;;;;;;25.20;36.00;;;;;;1594755;73;1511;-61
2023/06/24 11:20:45;;;;;;;;;;;25.30;36.40;;;;;;1595603;73;1299;-61
2023/06/24 11:22:47;;;;;;;;;;;25.40;36.10;;;;;;1596969;73;1285;-62
2023/06/24 11:24:49;;;;;;;;;;;25.50;36.60;;;;;;1590428;73;1487;-62
2023/06/24 11:26:51;;;;;;;;;;;25.40;36.00;;;;;;1596245;73;1256;-61
2023/06/24 11:28:53;;;;;;;;;;;25.50;36.10;;;;;;1592646;73;1292;-61
2023/06/24 11:30:55;;;;;;;;;;;25.40;36.50;;;;;;1591068;73;1118;-61
2023/06/24 11:32:57;;;;;;;;;;;25.50;36.30;;;;;;1590164;73;1943;-61
2023/06/24 11:34:59;;;;;;;;;;;25.50;36.00;;;;;;1591989;73;1489;-61
2023/06/24 11:37:11;;;;;;;;;;;25.50;36.30;;;;;;1566891;74;1489;-61
2023/06/24 11:39:26;;;;;;;;;;;25.50;36.70;;;;;;1547223;75;1346;-62
2023/06/24 11:41:27;;;;;;;;;;;25.50;36.40;;;;;;1535357;77;1404;-61
2023/06/24 11:43:29;;;;;;;;;;;25.50;36.10;;;;;;1529640;77;1126;-61
2023/06/24 11:45:32;;;;;;;;;;;25.50;36.20;;;;;;1526786;76;1286;-61
2023/06/24 11:47:38;;;;;;;;;;;25.50;34.80;;;;;;1538080;76;1070;-61
2023/06/24 11:49:50;;;;;;;;;;;25.40;35.70;;;;;;1517551;76;1385;-61
2023/06/24 11:51:52;;;;;;;;;;;25.40;35.80;;;;;;1530508;77;1954;-61
2023/06/24 11:53:56;;;;;;;;;;;25.40;36.20;;;;;;1540098;77;1322;-59
2023/06/24 11:55:58;;;;;;;;;;;25.30;35.80;;;;;;1512523;77;1331;-59
2023/06/24 11:58:01;;;;;;;;;;;25.30;36.30;;;;;;1591578;73;1266;-60
2023/06/24 12:00:04;;;;;;;;;;;25.30;35.50;;;;;;1596393;73;1211;-58
2023/06/24 12:02:06;;;;;;;;;;;25.20;35.50;;;;;;1568722;74;1231;-60
2023/06/24 12:04:13;;;;;;;;;;;25.10;34.90;;;;;;1591298;73;1507;-62
2023/06/24 12:06:15;;;;;;;;;;;25.10;35.50;;;;;;1588211;73;1433;-63